Pagrindinis puslapis
METAR-TAF:

METAR-TAF

Oro uostai :

Anaba, Alžyras

platuma: 36-50N, ilguma: 007-49E, Aukštis: 4 m

Dabartinis oras

Ataskaita buvo paskelbta 21 minutes, ne 21:00 UTC
Vėjas 2 kt iš Pietų
Temperatūra 10°C
Drėgmė 87%
Slėgis 1024 hPa
Matomumas 10 km arba daugiau
nėra debesų žemiau 1500 m ir nėra kamuolinių lietaus debesų

METAR: DABB 272100Z 19002KT CAVOK 10/08 Q1024

Laikas: 22:21 (21:21 UTC)

Prognozė

Ataskaita buvo paskelbta 4 valandos ir 21 minutes, ne 17:00 UTC
Prognozė galioja nuo 27 metu 18 UTC su 28 metu 18 UTC
Vėjas 12 kt iš Šiaurės Vakarų
Matomumas 10 km arba daugiau
Mažai debesys ne aukštis 2000 ft
Išsisklaidę debesys ne aukštis 3300 ft
Tikimybė 40% :
Laikinai
nuo 27 metu 18 UTC su 27 metu 22 UTC
Mažai debesys ne aukštis 2300 ft, aukštai iškilę kamuoliniai debesys.
Tapsmas
nuo 27 metu 20 UTC su 27 metu 22 UTC
Vėjas 8 kt iš Pietų
Tikimybė %
tarp CH ir EC UTC

TAF: DABB 271700Z 2718/2818 31012KT 9999 FEW020 SCT033 PROB40 TEMPO 2718/2722 FEW023TCU BECMG 2720/2722 19008KT PROB CHECK TEXT NEW ENDING ADDED DAAAYFYX

Orai ataskaitas ir orų prognozės (METAR, TAF).

turimą stotys yra geltonos ir raudonos taškus žemėlapyje.

Perkelti pele per norėdami pamatyti stoties vardą.

Tada spustelėkite, norėdami matyti oro stebėjimo ir prognozės.

Norėdami pakeisti žemėlapį: spustelėkite ant žalios mygtukų su juodo kryžiaus žemyn,; žalią mygtuką su brūkšneliu, jei norite nutolinti; arba žalių rodyklių gretimoms žemėlapius.


METAR-TAF: